F/V Face A La Mer — FGA3236 — position and weather

sailwx.info

Track history (hours):
 
Tides and Currents Weather Stations Pressure Air Temp Water Temp Dewpoint Dewpoint Depression Visibility Wind Speed Wind Dir Waves Ship Positions

F/V Face A La Mer

Last reported at 2018-Jun-22 04:58 UTC. Time now 2018-Jun-22 16:45 UTC.
Position N 48°06' W 004°19'.

Length 14 m.

Type: Fishing. MMSI: 227315190.

Date/timePositionNaut miles runAvg speedWind from/ knotsBaromVisibWave heightAir tempDewpointWater temp
2018-Jun-22 04:58N 48°06' W 004°19'8 8.0
2018-Jun-22 03:59N 48°08' W 004°31'5 8.0
2018-Jun-22 03:21N 48°10' W 004°38'1 4.0
2018-Jun-22 03:00N 48°10' W 004°40'6 6.9
2018-Jun-22 02:11N 48°07' W 004°33'2 9.4
2018-Jun-22 01:58N 48°08' W 004°31'3 3.0
2018-Jun-22 00:58N 48°08' W 004°35'4 7.8
2018-Jun-22 00:27N 48°08' W 004°41'3 6.2
2018-Jun-21 23:58N 48°11' W 004°41'0 0.5
2018-Jun-21 23:30N 48°12' W 004°40'2 3.6
2018-Jun-21 23:00N 48°11' W 004°43'6 9.0
2018-Jun-21 22:23N 48°09' W 004°35'3 8.8
2018-Jun-21 22:00N 48°08' W 004°30'8 0.5
2018-Jun-21 04:53N 48°06' W 004°19'0 0.2
2018-Jun-21 03:53N 48°06' W 004°19'7 7.4
2018-Jun-21 02:58N 48°09' W 004°28'2 3.5
2018-Jun-21 02:30N 48°09' W 004°31'2 4.3
2018-Jun-21 01:58N 48°11' W 004°30'6 4.7
2018-Jun-21 00:45N 48°09' W 004°37'2 3.9
2018-Jun-21 00:17N 48°10' W 004°39'1 3.3
2018-Jun-20 23:59N 48°11' W 004°40'0 0.5
2018-Jun-20 23:26N 48°11' W 004°40'3 6.8
2018-Jun-20 23:00N 48°10' W 004°44'5 8.9
2018-Jun-20 22:30N 48°08' W 004°38'5 9.3
2018-Jun-20 21:57N 48°08' W 004°31'8 6.1
2018-Jun-20 20:38N 48°06' W 004°19'0 0.0
2018-Jun-20 05:53N 48°06' W 004°19'1 0.7
2018-Jun-20 04:58N 48°06' W 004°19'6 8.8
2018-Jun-20 04:17N 48°11' W 004°25'1 3.0
2018-Jun-20 03:58N 48°12' W 004°26'5 4.5
2018-Jun-20 02:58N 48°09' W 004°31'7 5.9
2018-Jun-20 01:48N 48°09' W 004°42'3 8.0
2018-Jun-20 01:26N 48°10' W 004°46'0 0.6
2018-Jun-20 00:58N 48°10' W 004°46'1 3.1
2018-Jun-20 00:30N 48°09' W 004°44'0 0.2
2018-Jun-19 23:54N 48°09' W 004°43'3 6.5
2018-Jun-19 23:30N 48°08' W 004°40'6 9.6
2018-Jun-19 22:53N 48°09' W 004°31'2 5.5
2018-Jun-19 22:30N 48°08' W 004°33'5 9.3
2018-Jun-19 21:59N 48°11' W 004°28'8 0.5
2018-Jun-19 04:53N 48°06' W 004°19'0 0.1
2018-Jun-19 03:53N 48°06' W 004°19'0 0.0
2018-Jun-19 02:58N 48°06' W 004°19'8 7.7
2018-Jun-19 01:56N 48°08' W 004°31'1 1.1
2018-Jun-19 00:58N 48°09' W 004°32'0 0.3
2018-Jun-18 23:53N 48°09' W 004°33'5 4.1
2018-Jun-18 22:46N 48°11' W 004°27'0 0.5
2018-Jun-18 22:24N 48°11' W 004°27'0 0.6
2018-Jun-18 21:59N 48°11' W 004°27'7 7.0
2018-Jun-18 20:58N 48°06' W 004°19'0 0.0
2018-Jun-18 05:38N 48°06' W 004°19'0 0.2
2018-Jun-18 04:53N 48°06' W 004°19'8 8.7
2018-Jun-18 03:58N 48°09' W 004°31'0 0.7
2018-Jun-18 03:30N 48°09' W 004°31'0 0.4
2018-Jun-18 03:00N 48°09' W 004°31'0 0.4
2018-Jun-18 02:21N 48°09' W 004°30'2 4.1
2018-Jun-18 01:58N 48°08' W 004°29'  
2018-Jun-15 00:58N 47°54' W 004°24'3 1.5
2018-Jun-14 22:48N 47°51' W 004°23'  
Track history (hours):
 
Tides and Currents Weather Stations Pressure Air Temp Water Temp Dewpoint Dewpoint Depression Visibility Wind Speed Wind Dir Waves Ship Positions

F/V Face A La Mer

Last reported at 2018-Jun-22 04:58 UTC. Time now 2018-Jun-22 16:45 UTC.
Position N 48°06' W 004°19'.

Length 14 m.

Type: Fishing. MMSI: 227315190.

Date/timePositionNaut miles runAvg speedWind from/ knotsBaromVisibWave heightAir tempDewpointWater temp
2018-Jun-22 04:58N 48°06' W 004°19'8 8.0
2018-Jun-22 03:59N 48°08' W 004°31'5 8.0
2018-Jun-22 03:21N 48°10' W 004°38'1 4.0
2018-Jun-22 03:00N 48°10' W 004°40'6 6.9
2018-Jun-22 02:11N 48°07' W 004°33'2 9.4
2018-Jun-22 01:58N 48°08' W 004°31'3 3.0
2018-Jun-22 00:58N 48°08' W 004°35'4 7.8
2018-Jun-22 00:27N 48°08' W 004°41'3 6.2
2018-Jun-21 23:58N 48°11' W 004°41'0 0.5
2018-Jun-21 23:30N 48°12' W 004°40'2 3.6
2018-Jun-21 23:00N 48°11' W 004°43'6 9.0
2018-Jun-21 22:23N 48°09' W 004°35'3 8.8
2018-Jun-21 22:00N 48°08' W 004°30'8 0.5
2018-Jun-21 04:53N 48°06' W 004°19'0 0.2
2018-Jun-21 03:53N 48°06' W 004°19'7 7.4
2018-Jun-21 02:58N 48°09' W 004°28'2 3.5
2018-Jun-21 02:30N 48°09' W 004°31'2 4.3
2018-Jun-21 01:58N 48°11' W 004°30'6 4.7
2018-Jun-21 00:45N 48°09' W 004°37'2 3.9
2018-Jun-21 00:17N 48°10' W 004°39'1 3.3
2018-Jun-20 23:59N 48°11' W 004°40'0 0.5
2018-Jun-20 23:26N 48°11' W 004°40'3 6.8
2018-Jun-20 23:00N 48°10' W 004°44'5 8.9
2018-Jun-20 22:30N 48°08' W 004°38'5 9.3
2018-Jun-20 21:57N 48°08' W 004°31'8 6.1
2018-Jun-20 20:38N 48°06' W 004°19'0 0.0
2018-Jun-20 05:53N 48°06' W 004°19'1 0.7
2018-Jun-20 04:58N 48°06' W 004°19'6 8.8
2018-Jun-20 04:17N 48°11' W 004°25'1 3.0
2018-Jun-20 03:58N 48°12' W 004°26'5 4.5
2018-Jun-20 02:58N 48°09' W 004°31'7 5.9
2018-Jun-20 01:48N 48°09' W 004°42'3 8.0
2018-Jun-20 01:26N 48°10' W 004°46'0 0.6
2018-Jun-20 00:58N 48°10' W 004°46'1 3.1
2018-Jun-20 00:30N 48°09' W 004°44'0 0.2
2018-Jun-19 23:54N 48°09' W 004°43'3 6.5
2018-Jun-19 23:30N 48°08' W 004°40'6 9.6
2018-Jun-19 22:53N 48°09' W 004°31'2 5.5
2018-Jun-19 22:30N 48°08' W 004°33'5 9.3
2018-Jun-19 21:59N 48°11' W 004°28'8 0.5
2018-Jun-19 04:53N 48°06' W 004°19'0 0.1
2018-Jun-19 03:53N 48°06' W 004°19'0 0.0
2018-Jun-19 02:58N 48°06' W 004°19'8 7.7
2018-Jun-19 01:56N 48°08' W 004°31'1 1.1
2018-Jun-19 00:58N 48°09' W 004°32'0 0.3
2018-Jun-18 23:53N 48°09' W 004°33'5 4.1
2018-Jun-18 22:46N 48°11' W 004°27'0 0.5
2018-Jun-18 22:24N 48°11' W 004°27'0 0.6
2018-Jun-18 21:59N 48°11' W 004°27'7 7.0
2018-Jun-18 20:58N 48°06' W 004°19'0 0.0
2018-Jun-18 05:38N 48°06' W 004°19'0 0.2
2018-Jun-18 04:53N 48°06' W 004°19'8 8.7
2018-Jun-18 03:58N 48°09' W 004°31'0 0.7
2018-Jun-18 03:30N 48°09' W 004°31'0 0.4
2018-Jun-18 03:00N 48°09' W 004°31'0 0.4
2018-Jun-18 02:21N 48°09' W 004°30'2 4.1
2018-Jun-18 01:58N 48°08' W 004°29'  
2018-Jun-15 00:58N 47°54' W 004°24'3 1.5
2018-Jun-14 22:48N 47°51' W 004°23'  

Dump ship's entire track history